createdAt,value
2022-10-20T00:01:15.389Z,12.40
2022-10-20T00:03:46.875Z,13.00
2022-10-20T00:06:23.327Z,12.90
2022-10-20T00:08:51.984Z,13.60
2022-10-20T00:11:21.591Z,14.60
2022-10-20T00:13:52.983Z,13.50
2022-10-20T00:16:21.961Z,13.60
2022-10-20T00:18:49.803Z,12.70
2022-10-20T00:21:20.221Z,12.40
2022-10-20T00:23:48.896Z,12.00
2022-10-20T00:26:19.074Z,13.40
2022-10-20T00:28:47.020Z,11.10
2022-10-20T00:31:14.966Z,13.70
2022-10-20T00:33:42.770Z,15.20
2022-10-20T00:36:15.048Z,16.00
2022-10-20T00:38:43.225Z,15.20
2022-10-20T00:41:18.946Z,16.60
2022-10-20T00:43:54.471Z,16.30
2022-10-20T00:46:25.780Z,18.10
2022-10-20T00:49:02.957Z,16.40
2022-10-20T00:51:33.042Z,15.40
2022-10-20T00:54:09.104Z,15.70
2022-10-20T00:56:40.649Z,15.50
2022-10-20T00:59:08.747Z,15.60
2022-10-20T01:01:38.242Z,17.40
2022-10-20T01:04:06.434Z,14.50
2022-10-20T01:06:34.315Z,16.00
2022-10-20T01:09:02.327Z,15.50
2022-10-20T01:11:43.176Z,15.40
2022-10-20T01:14:26.905Z,14.70
2022-10-20T01:17:36.367Z,15.00
2022-10-20T01:20:19.526Z,14.50
2022-10-20T01:23:15.103Z,13.90
2022-10-20T01:26:03.989Z,14.20
2022-10-20T01:28:42.403Z,12.90
2022-10-20T01:31:22.068Z,13.00
2022-10-20T01:34:19.111Z,13.50
2022-10-20T01:37:28.344Z,13.60
2022-10-20T01:40:17.458Z,14.50
2022-10-20T01:42:46.099Z,14.10
2022-10-20T01:45:15.188Z,13.50
2022-10-20T01:47:43.727Z,14.40
2022-10-20T01:50:12.766Z,13.60
2022-10-20T01:52:40.445Z,13.20
2022-10-20T01:55:13.687Z,14.40
2022-10-20T01:58:09.915Z,14.00
2022-10-20T02:00:38.869Z,13.10
2022-10-20T02:03:20.520Z,13.40
2022-10-20T02:06:09.408Z,14.50
2022-10-20T02:08:48.579Z,14.50
2022-10-20T02:11:26.808Z,14.70
2022-10-20T02:13:56.259Z,15.90
2022-10-20T02:16:32.506Z,15.90
2022-10-20T02:19:00.948Z,15.50
2022-10-20T02:21:28.994Z,15.20
2022-10-20T02:24:00.676Z,14.80
2022-10-20T02:26:30.767Z,15.10
2022-10-20T02:29:01.439Z,15.10
2022-10-20T02:31:29.494Z,15.50
2022-10-20T02:33:57.872Z,16.20
2022-10-20T02:36:28.388Z,15.90
2022-10-20T02:38:56.571Z,16.20
2022-10-20T02:41:24.380Z,15.80
2022-10-20T02:43:52.211Z,15.90
2022-10-20T02:46:20.134Z,15.80
2022-10-20T02:48:47.804Z,15.90
2022-10-20T02:51:17.362Z,16.20
2022-10-20T02:53:45.599Z,16.20
2022-10-20T02:56:13.334Z,16.10
2022-10-20T02:58:41.098Z,17.00
2022-10-20T03:01:08.791Z,18.30
2022-10-20T03:03:36.673Z,18.70
2022-10-20T03:06:15.286Z,18.40
2022-10-20T03:08:43.683Z,18.50
2022-10-20T03:11:11.414Z,18.80
2022-10-20T03:13:39.194Z,17.50
2022-10-20T03:16:07.302Z,17.00
2022-10-20T03:18:35.190Z,17.40
2022-10-20T03:21:02.923Z,17.40
2022-10-20T03:23:30.632Z,19.20
2022-10-20T03:26:06.464Z,17.50
2022-10-20T03:28:34.251Z,18.50
2022-10-20T03:31:01.999Z,18.10
2022-10-20T03:33:29.684Z,18.90
2022-10-20T03:35:57.556Z,19.10
2022-10-20T03:38:25.268Z,18.90
2022-10-20T03:40:53.045Z,18.30
2022-10-20T03:43:20.980Z,18.20
2022-10-20T03:45:48.793Z,17.70
2022-10-20T03:48:16.447Z,17.20
2022-10-20T03:50:44.195Z,15.20
2022-10-20T03:53:14.075Z,16.20
2022-10-20T03:55:41.740Z,16.10
2022-10-20T03:58:09.431Z,16.70
2022-10-20T04:00:37.080Z,17.40
2022-10-20T04:03:04.800Z,17.20
2022-10-20T04:05:32.482Z,17.10
2022-10-20T04:08:00.159Z,17.30
2022-10-20T04:10:27.864Z,16.20
2022-10-20T04:12:59.881Z,17.60
2022-10-20T04:15:27.970Z,16.70
2022-10-20T04:17:55.737Z,17.40
2022-10-20T04:20:23.394Z,16.20
2022-10-20T04:22:51.301Z,16.00
2022-10-20T04:25:19.504Z,15.70
2022-10-20T04:27:47.316Z,16.20
2022-10-20T04:30:15.133Z,16.00
2022-10-20T04:32:42.837Z,15.40
2022-10-20T04:35:10.582Z,15.60
2022-10-20T04:37:38.761Z,14.80
2022-10-20T04:40:07.584Z,15.30
2022-10-20T04:42:35.323Z,14.70
2022-10-20T04:45:03.219Z,14.80
2022-10-20T04:47:32.475Z,13.90
2022-10-20T04:50:00.141Z,14.00
2022-10-20T04:52:29.240Z,16.20
2022-10-20T04:54:57.013Z,17.30
2022-10-20T04:57:24.949Z,20.30
2022-10-20T04:59:52.681Z,45.80
2022-10-20T05:02:20.395Z,47.90
2022-10-20T05:04:48.160Z,30.90
2022-10-20T05:07:16.519Z,24.80
2022-10-20T05:09:44.245Z,22.20
2022-10-20T05:12:11.950Z,19.40
2022-10-20T05:14:39.756Z,20.20
2022-10-20T05:17:09.347Z,19.20
2022-10-20T05:19:38.281Z,21.60
2022-10-20T05:22:06.514Z,30.40
2022-10-20T05:24:34.350Z,27.80
2022-10-20T05:27:02.073Z,33.10
2022-10-20T05:29:29.836Z,42.30
2022-10-20T05:31:57.562Z,23.60
2022-10-20T05:34:25.351Z,18.40
2022-10-20T05:36:54.454Z,16.70
2022-10-20T05:39:22.269Z,14.10
2022-10-20T05:41:50.030Z,13.70
2022-10-20T05:44:17.808Z,16.30
2022-10-20T05:46:48.056Z,18.50
2022-10-20T05:49:28.933Z,14.90
2022-10-20T05:51:58.783Z,15.70
2022-10-20T05:54:26.581Z,17.20
2022-10-20T05:56:54.300Z,15.80
2022-10-20T05:59:21.977Z,20.30
2022-10-20T06:01:49.873Z,21.10
2022-10-20T06:04:20.855Z,23.80
2022-10-20T06:06:49.162Z,28.00
2022-10-20T06:09:17.553Z,33.20
2022-10-20T06:11:45.314Z,32.70
2022-10-20T06:14:13.310Z,34.90
2022-10-20T06:16:41.074Z,32.70
2022-10-20T06:19:09.001Z,24.60
2022-10-20T06:21:37.877Z,19.30
2022-10-20T06:24:06.397Z,20.40
2022-10-20T06:26:38.045Z,19.80
2022-10-20T06:29:08.045Z,18.70
2022-10-20T06:31:39.170Z,16.50
2022-10-20T06:34:14.009Z,16.50
2022-10-20T06:36:42.479Z,16.90
2022-10-20T06:39:22.209Z,15.00
2022-10-20T06:41:57.987Z,15.20
2022-10-20T06:44:30.840Z,15.00
2022-10-20T06:46:58.892Z,15.40
2022-10-20T06:49:26.736Z,14.90
2022-10-20T06:51:54.580Z,15.50
2022-10-20T06:54:22.384Z,16.90
2022-10-20T06:56:50.459Z,16.10
2022-10-20T06:59:18.327Z,16.40
2022-10-20T07:01:46.156Z,20.20
2022-10-20T07:04:15.747Z,24.90
2022-10-20T07:06:45.457Z,28.40
2022-10-20T07:09:16.638Z,29.50
2022-10-20T07:11:44.660Z,21.50
2022-10-20T07:14:13.916Z,16.40
2022-10-20T07:16:41.851Z,14.60
2022-10-20T07:19:10.059Z,14.10
2022-10-20T07:21:41.530Z,15.10
2022-10-20T07:24:11.121Z,18.60
2022-10-20T07:26:40.344Z,16.80
2022-10-20T07:29:08.869Z,13.60
2022-10-20T07:31:40.200Z,12.00
2022-10-20T07:34:27.216Z,10.00
2022-10-20T07:36:57.131Z,9.10
2022-10-20T07:39:25.930Z,5.50
2022-10-20T07:41:54.122Z,7.00
2022-10-20T07:44:22.527Z,7.20
2022-10-20T07:46:50.697Z,6.10
2022-10-20T07:52:06.638Z,6.00
2022-10-20T07:54:34.600Z,6.60
2022-10-20T07:57:02.886Z,6.40
2022-10-20T07:59:30.763Z,5.30
2022-10-20T08:01:59.860Z,5.60
2022-10-20T08:04:31.581Z,5.10
2022-10-20T08:07:00.470Z,3.80
2022-10-20T08:09:28.451Z,3.60
2022-10-20T08:11:56.401Z,3.70
2022-10-20T08:14:27.198Z,5.80
2022-10-20T08:16:59.429Z,2.40
2022-10-20T08:22:13.052Z,3.40
2022-10-20T08:24:40.872Z,2.00
2022-10-20T08:27:08.660Z,2.50
2022-10-20T08:29:37.272Z,3.30
2022-10-20T08:32:05.616Z,3.80
2022-10-20T08:34:33.639Z,3.70
2022-10-20T08:37:01.419Z,4.20
2022-10-20T08:39:29.225Z,10.90
2022-10-20T08:42:13.146Z,4.30
2022-10-20T08:44:45.171Z,4.20
2022-10-20T08:47:35.734Z,4.10
2022-10-20T08:50:06.555Z,4.40
2022-10-20T08:52:34.584Z,4.70
2022-10-20T08:55:04.529Z,4.40
2022-10-20T08:57:35.963Z,3.30
2022-10-20T09:00:22.707Z,3.40
2022-10-20T09:02:51.651Z,3.60
2022-10-20T09:05:24.142Z,3.70
2022-10-20T09:07:52.599Z,3.70
2022-10-20T09:10:32.711Z,3.10
2022-10-20T09:13:01.536Z,3.50
2022-10-20T09:15:29.714Z,3.70
2022-10-20T09:18:09.300Z,2.50
2022-10-20T09:20:53.638Z,3.10
2022-10-20T09:23:46.903Z,2.40
2022-10-20T09:26:54.102Z,2.50
2022-10-20T09:29:23.317Z,3.00
2022-10-20T09:31:54.476Z,4.00
2022-10-20T09:34:28.759Z,3.60
2022-10-20T09:37:04.925Z,2.60
2022-10-20T09:39:40.572Z,1.90
2022-10-20T09:42:14.688Z,2.40
2022-10-20T09:44:50.183Z,3.40
2022-10-20T09:47:18.071Z,2.00
2022-10-20T09:49:46.389Z,3.20
2022-10-20T09:52:23.899Z,2.00
2022-10-20T09:54:55.731Z,1.60
2022-10-20T09:57:23.560Z,2.80
2022-10-20T09:59:52.539Z,1.80
2022-10-20T10:02:20.241Z,1.20
2022-10-20T10:04:49.957Z,1.90
2022-10-20T10:07:26.938Z,2.20
2022-10-20T10:10:08.082Z,2.50
2022-10-20T10:12:36.925Z,1.80
2022-10-20T10:15:24.307Z,2.00
2022-10-20T10:17:52.564Z,1.30
2022-10-20T10:20:30.138Z,2.00
2022-10-20T10:23:20.134Z,5.80
2022-10-20T10:25:48.807Z,2.50
2022-10-20T10:28:35.328Z,2.30
2022-10-20T10:31:09.331Z,2.00
2022-10-20T10:33:37.258Z,2.60
2022-10-20T10:36:25.765Z,2.60
2022-10-20T10:38:54.393Z,1.90
2022-10-20T10:41:25.560Z,2.30
2022-10-20T10:44:04.131Z,2.50
2022-10-20T10:46:37.067Z,3.00
2022-10-20T10:50:02.574Z,2.20
2022-10-20T10:52:46.383Z,3.70
2022-10-20T10:55:47.403Z,2.80
2022-10-20T10:58:29.133Z,3.20
2022-10-20T11:01:21.811Z,2.80
2022-10-20T11:04:07.838Z,1.70
2022-10-20T11:06:48.302Z,1.60
2022-10-20T11:09:30.581Z,1.70
2022-10-20T11:12:22.086Z,2.10
2022-10-20T11:15:21.075Z,1.80
2022-10-20T11:17:58.737Z,1.50
2022-10-20T11:20:34.882Z,2.60
2022-10-20T11:23:31.118Z,1.80
2022-10-20T11:26:05.813Z,3.20
2022-10-20T11:28:44.415Z,2.80
2022-10-20T11:31:48.705Z,3.60
2022-10-20T11:34:34.438Z,3.40
2022-10-20T11:37:25.222Z,4.50
2022-10-20T11:40:09.336Z,3.00
2022-10-20T11:42:59.560Z,3.20
2022-10-20T11:45:56.694Z,3.60
2022-10-20T11:48:36.511Z,3.40
2022-10-20T11:51:30.837Z,3.50
2022-10-20T11:54:38.327Z,3.10
2022-10-20T11:57:31.712Z,3.00
2022-10-20T12:00:21.594Z,2.30
2022-10-20T12:02:56.802Z,2.00
2022-10-20T12:05:49.928Z,3.90
2022-10-20T12:08:30.200Z,2.90
2022-10-20T12:11:26.513Z,2.40
2022-10-20T12:14:17.492Z,3.50
2022-10-20T12:16:54.718Z,2.30
2022-10-20T12:19:31.432Z,2.70
2022-10-20T12:22:18.865Z,2.40
2022-10-20T12:24:52.755Z,2.30
2022-10-20T12:27:25.461Z,3.30
2022-10-20T12:30:00.713Z,4.30
2022-10-20T12:32:28.798Z,4.10
2022-10-20T12:35:01.029Z,3.40
2022-10-20T12:37:35.395Z,4.70
2022-10-20T12:40:06.612Z,3.20
2022-10-20T12:42:38.905Z,2.90
2022-10-20T12:45:16.015Z,3.70
2022-10-20T12:47:49.152Z,2.70
2022-10-20T12:50:44.728Z,2.50
2022-10-20T12:53:15.929Z,5.60
2022-10-20T12:55:53.723Z,2.20
2022-10-20T12:58:22.251Z,2.80
2022-10-20T13:00:50.102Z,2.40
2022-10-20T13:03:50.979Z,3.00
2022-10-20T13:06:27.435Z,3.50
2022-10-20T13:09:04.730Z,9.60
2022-10-20T13:11:44.725Z,3.20
2022-10-20T13:14:12.543Z,3.70
2022-10-20T13:16:45.366Z,1.90
2022-10-20T13:19:19.761Z,4.00
2022-10-20T13:21:49.753Z,2.60
2022-10-20T13:24:27.456Z,4.10
2022-10-20T13:26:59.833Z,2.40
2022-10-20T13:29:36.137Z,2.40
2022-10-20T13:32:28.025Z,3.00
2022-10-20T13:35:02.746Z,2.70
2022-10-20T13:37:42.143Z,7.00
2022-10-20T13:40:36.506Z,3.80
2022-10-20T13:43:35.692Z,3.30
2022-10-20T13:46:48.743Z,3.30
2022-10-20T13:49:35.009Z,4.10
2022-10-20T13:52:06.161Z,3.50
2022-10-20T13:54:37.175Z,4.10
2022-10-20T13:57:05.758Z,4.90
2022-10-20T13:59:33.674Z,4.70
2022-10-20T14:02:18.396Z,3.80
2022-10-20T14:04:46.508Z,4.30
2022-10-20T14:07:16.145Z,4.40
2022-10-20T14:09:47.455Z,4.50
2022-10-20T14:12:24.703Z,3.80
2022-10-20T14:15:00.702Z,3.90
2022-10-20T14:17:29.952Z,5.20
2022-10-20T14:20:20.762Z,4.00
2022-10-20T14:22:48.803Z,4.60
2022-10-20T14:25:17.031Z,4.00
2022-10-20T14:27:45.306Z,4.60
2022-10-20T14:30:16.882Z,3.10
2022-10-20T14:32:46.181Z,2.70
2022-10-20T14:35:52.593Z,3.10
2022-10-20T14:38:35.406Z,4.10
2022-10-20T14:41:05.916Z,4.70
2022-10-20T14:43:40.419Z,2.90
2022-10-20T14:46:11.452Z,2.80
2022-10-20T14:48:45.220Z,3.60
2022-10-20T14:51:44.125Z,4.70
2022-10-20T14:54:20.857Z,2.90
2022-10-20T14:56:50.007Z,4.30
2022-10-20T14:59:20.122Z,2.90
2022-10-20T15:02:12.614Z,4.50
2022-10-20T15:04:42.345Z,4.90
2022-10-20T15:07:32.844Z,4.50
2022-10-20T15:10:08.313Z,6.10
2022-10-20T15:12:36.306Z,3.70
2022-10-20T15:15:12.065Z,4.70
2022-10-20T15:17:45.623Z,5.50
2022-10-20T15:20:34.851Z,3.70
2022-10-20T15:23:17.674Z,6.90
2022-10-20T15:25:45.475Z,5.60
2022-10-20T15:28:24.104Z,6.00
2022-10-20T15:30:51.897Z,5.30
2022-10-20T15:33:21.334Z,8.50
2022-10-20T15:35:50.422Z,4.30
2022-10-20T15:38:18.224Z,5.00
2022-10-20T15:40:46.357Z,7.50
2022-10-20T15:43:16.535Z,5.90
2022-10-20T15:45:48.228Z,4.90
2022-10-20T15:48:16.121Z,5.50
2022-10-20T15:50:43.968Z,4.60
2022-10-20T15:53:12.315Z,4.60
2022-10-20T15:55:42.647Z,5.10
2022-10-20T15:58:10.552Z,5.30
2022-10-20T16:00:38.555Z,6.20
2022-10-20T16:03:07.070Z,6.10
2022-10-20T16:05:34.963Z,6.00
2022-10-20T16:08:02.837Z,5.70
2022-10-20T16:10:30.719Z,10.50
2022-10-20T16:12:58.456Z,8.20
2022-10-20T16:15:30.241Z,8.80
2022-10-20T16:17:59.403Z,13.50
2022-10-20T16:20:27.331Z,15.90
2022-10-20T16:22:55.203Z,17.20
2022-10-20T16:25:23.499Z,25.80
2022-10-20T16:27:51.310Z,20.70
2022-10-20T16:30:19.150Z,30.50
2022-10-20T16:32:46.974Z,16.20
2022-10-20T16:35:14.913Z,16.90
2022-10-20T16:37:44.160Z,16.20
2022-10-20T16:40:12.384Z,18.20
2022-10-20T16:42:40.260Z,16.60
2022-10-20T16:45:09.030Z,14.60
2022-10-20T16:47:37.263Z,15.10
2022-10-20T16:50:05.531Z,17.10
2022-10-20T16:52:33.459Z,24.30
2022-10-20T16:55:01.245Z,25.10
2022-10-20T16:57:30.167Z,26.10
2022-10-20T16:59:59.571Z,27.60
2022-10-20T17:02:27.500Z,24.50
2022-10-20T17:04:55.261Z,19.50
2022-10-20T17:07:23.000Z,17.10
2022-10-20T17:09:50.885Z,16.90
2022-10-20T17:12:18.744Z,18.00
2022-10-20T17:14:46.558Z,18.40
2022-10-20T17:17:14.381Z,26.70
2022-10-20T17:19:43.331Z,20.40
2022-10-20T17:24:39.013Z,18.70
2022-10-20T17:27:06.780Z,32.70
2022-10-20T17:29:34.829Z,46.70
2022-10-20T17:32:02.696Z,15.60
2022-10-20T17:34:30.551Z,13.90
2022-10-20T17:36:58.375Z,16.90
2022-10-20T17:39:26.259Z,16.10
2022-10-20T17:41:54.675Z,25.00
2022-10-20T17:44:22.475Z,43.90
2022-10-20T17:46:50.420Z,49.00
2022-10-20T17:49:18.242Z,43.20
2022-10-20T17:51:46.240Z,17.70
2022-10-20T17:54:14.119Z,13.30
2022-10-20T17:56:41.948Z,15.60
2022-10-20T17:59:12.996Z,12.40
2022-10-20T18:01:41.171Z,11.30
2022-10-20T18:04:14.759Z,11.30
2022-10-20T18:06:43.438Z,13.00
2022-10-20T18:09:14.105Z,36.20
2022-10-20T18:11:51.948Z,29.00
2022-10-20T18:14:20.263Z,26.70
2022-10-20T18:16:48.418Z,28.30
2022-10-20T18:19:18.625Z,16.10
2022-10-20T18:21:46.636Z,14.60
2022-10-20T18:24:15.820Z,12.30
2022-10-20T18:26:44.821Z,12.70
2022-10-20T18:29:13.731Z,15.50
2022-10-20T18:31:43.335Z,13.90
2022-10-20T18:34:17.450Z,11.20
2022-10-20T18:36:46.355Z,16.80
2022-10-20T18:39:15.756Z,13.80
2022-10-20T18:41:44.245Z,21.70
2022-10-20T18:44:17.052Z,11.70
2022-10-20T18:46:46.578Z,12.90
2022-10-20T18:49:16.197Z,11.40
2022-10-20T18:51:45.287Z,11.30
2022-10-20T18:54:14.423Z,15.00
2022-10-20T18:56:43.100Z,13.70
2022-10-20T18:59:14.034Z,13.00
2022-10-20T19:01:42.136Z,13.00
2022-10-20T19:04:11.046Z,20.90
2022-10-20T19:06:47.309Z,11.40
2022-10-20T19:09:18.365Z,11.50
2022-10-20T19:11:47.735Z,11.20
2022-10-20T19:14:16.031Z,11.50
2022-10-20T19:16:47.027Z,11.30
2022-10-20T19:19:15.116Z,12.40
2022-10-20T19:21:42.928Z,10.70
2022-10-20T19:24:19.833Z,12.00
2022-10-20T19:27:02.190Z,11.10
2022-10-20T19:29:36.002Z,11.30
2022-10-20T19:32:05.680Z,10.90
2022-10-20T19:34:36.392Z,11.20
2022-10-20T19:37:04.752Z,11.50
2022-10-20T19:39:35.708Z,12.30
2022-10-20T19:42:04.738Z,11.80
2022-10-20T19:44:32.712Z,12.10
2022-10-20T19:47:00.863Z,12.00
2022-10-20T19:49:28.982Z,12.60
2022-10-20T19:51:56.816Z,12.50
2022-10-20T19:54:24.675Z,13.00
2022-10-20T19:56:52.671Z,13.50
2022-10-20T19:59:20.541Z,14.20
2022-10-20T20:01:49.707Z,14.10
2022-10-20T20:04:17.490Z,14.70
2022-10-20T20:06:45.249Z,14.80
2022-10-20T20:09:15.798Z,14.20
2022-10-20T20:11:44.198Z,14.80
2022-10-20T20:14:17.288Z,14.00
2022-10-20T20:16:46.329Z,14.60
2022-10-20T20:19:16.655Z,13.80
2022-10-20T20:21:46.073Z,14.80
2022-10-20T20:24:14.590Z,17.70
2022-10-20T20:26:44.544Z,15.30
2022-10-20T20:29:12.647Z,15.30
2022-10-20T20:31:40.557Z,16.00
2022-10-20T20:34:08.287Z,16.40
2022-10-20T20:36:35.995Z,16.20
2022-10-20T20:39:03.730Z,16.70
2022-10-20T20:41:31.593Z,16.70
2022-10-20T20:44:02.937Z,17.60
2022-10-20T20:46:34.074Z,17.50
2022-10-20T20:49:02.419Z,19.10
2022-10-20T20:51:33.627Z,17.80
2022-10-20T20:54:02.839Z,19.10
2022-10-20T20:56:30.778Z,19.20
2022-10-20T20:58:58.549Z,20.10
2022-10-20T21:01:27.865Z,19.10
2022-10-20T21:03:57.864Z,19.50
2022-10-20T21:06:33.445Z,19.30
2022-10-20T21:09:02.129Z,20.00
2022-10-20T21:11:30.356Z,21.90
2022-10-20T21:13:59.258Z,22.80
2022-10-20T21:16:33.515Z,21.60
2022-10-20T21:19:09.578Z,22.30
2022-10-20T21:21:44.288Z,22.50
2022-10-20T21:24:12.746Z,22.00
2022-10-20T21:26:40.732Z,22.20
2022-10-20T21:29:08.459Z,22.50
2022-10-20T21:31:36.425Z,23.20
2022-10-20T21:34:05.240Z,22.50
2022-10-20T21:36:35.369Z,21.80
2022-10-20T21:39:05.384Z,22.70
2022-10-20T21:41:34.796Z,23.10
2022-10-20T21:44:04.624Z,21.20
2022-10-20T21:46:39.641Z,20.70
2022-10-20T21:49:10.137Z,20.90
2022-10-20T21:51:40.123Z,20.30
2022-10-20T21:54:11.697Z,20.60
2022-10-20T21:56:41.484Z,21.10
2022-10-20T21:59:18.628Z,20.20
2022-10-20T22:01:48.190Z,21.40
2022-10-20T22:04:18.254Z,21.30
2022-10-20T22:06:46.444Z,23.20
2022-10-20T22:09:15.510Z,22.10
2022-10-20T22:11:47.610Z,20.70
2022-10-20T22:14:15.398Z,21.80
2022-10-20T22:16:43.631Z,20.50
2022-10-20T22:19:14.893Z,20.60
2022-10-20T22:21:45.211Z,18.30
2022-10-20T22:24:14.589Z,20.00
2022-10-20T22:26:42.594Z,20.10
2022-10-20T22:29:11.028Z,20.60
2022-10-20T22:31:39.909Z,19.50
2022-10-20T22:34:08.232Z,19.70
2022-10-20T22:36:36.740Z,20.80
2022-10-20T22:39:05.263Z,19.60
2022-10-20T22:41:33.464Z,19.20
2022-10-20T22:44:01.235Z,19.80
2022-10-20T22:46:29.457Z,19.50
2022-10-20T22:51:30.335Z,18.40
2022-10-20T22:53:59.020Z,19.30
2022-10-20T22:56:26.916Z,19.60
2022-10-20T22:58:55.091Z,19.20
2022-10-20T23:01:23.605Z,18.50
2022-10-20T23:03:51.975Z,18.70
2022-10-20T23:06:23.596Z,20.20
2022-10-20T23:08:54.142Z,19.00
2022-10-20T23:11:22.614Z,18.30
2022-10-20T23:13:51.341Z,18.10
2022-10-20T23:16:19.687Z,18.80
2022-10-20T23:18:47.774Z,19.10
2022-10-20T23:21:15.821Z,17.20
2022-10-20T23:23:45.397Z,18.20
2022-10-20T23:26:13.377Z,19.00
2022-10-20T23:28:41.543Z,19.70
2022-10-20T23:31:16.124Z,17.80
2022-10-20T23:33:44.956Z,23.40
2022-10-20T23:36:14.263Z,18.50
2022-10-20T23:38:42.983Z,18.50
2022-10-20T23:41:10.922Z,19.10
2022-10-20T23:43:38.710Z,18.30
2022-10-20T23:46:07.351Z,18.30
2022-10-20T23:48:35.335Z,18.50
2022-10-20T23:51:03.254Z,18.50
2022-10-20T23:53:31.476Z,19.50
2022-10-20T23:55:59.251Z,19.90
2022-10-20T23:58:27.128Z,19.50
